Extreme weather reports worldwide

Highest temperatures

Station
 
Location
 
Name
 
Wind
Knots
Gust
Knots
Vis
SM
Temp/Dew
C
Baro
inHg
METAR
 
DCN YCIN AU RAAF Base Curtin 5 40/19 29.62 YCIN 260700Z AUTO 15005KT 090V190 9999 // NCD 40/19 Q1003 RF00.0/000.0
ASP YBAS Alice Springs, AU Alice Springs Airport 11 39/5 29.79 YBAS 260700Z AUTO 05011KT 040V100 9999 // NCD 39/05 Q1009 RF00.0/000.0
TKT VTPT TH Tak Airport 4.35 37/24 29.82 VTPT 260700Z /////KT 7000 SCT028 37/24 Q1010 NOSIG
BWH WMKB Butterworth, MY Butterworth Airport 14 5.59 37/19 29.76 WMKB 260700Z 06014KT 020V090 9000 FEW020 37/19 Q1008 NOSIG
FOS YFRT AU Forrest Airport 18 37/7 29.76 YFRT 260700Z AUTO 09018KT 9999 // NCD 37/07 Q1008 RF00.0/000.0

Station
 
Location
 
Name
 
Wind
Knots
Gust
Knots
Vis
SM
Temp/Dew
C
Baro
inHg
METAR
 
UMR YPWR Woomera, AU Woomera Airfield 7 37/-3 29.85 YPWR 260700Z AUTO 26007KT 180V260 9999 // NCD 37/M03 Q1011 RF00.0/000.0
BOM VABB Mumbai, IN Chhatrapati Shivaji International Airport 6 1.55 36/12 29.82 VABB 260700Z 10006KT 2500 FU FEW100 36/12 Q1010 NOSIG
DMK VTBD Bangkok, TH Don Mueang International Airport 5 36/22 29.82 VTBD 260700Z 18005KT 100V230 9999 FEW020 SCT040 36/22 Q1010 NOSIG
PRH VTCP TH Phrae Airport 9 3.73 36/22 29.85 VTCP 260700Z 20009KT 130V240 6000 FEW045 36/22 Q1011 NOSIG
PHY VTPB TH Phetchabun Airport 4 4.97 36/20 29.85 VTPB 260700Z VRB04KT 8000 FEW030 36/20 Q1011 NOSIG
MAQ VTPM TH Mae Sot Airport 4 4.97 36/16 29.82 VTPM 260700Z 14004KT 090V240 8000 FEW047 36/16 Q1010 NOSIG
KBV VTSG Krabi, TH Krabi Airport 11 36/21 29.82 VTSG 260700Z 09011KT 040V150 9999 SCT030 36/21 Q1010 NOSIG
SGN VVTS Ho Chi Minh City, VN Tan Son Nhat International Airport 7 36/15 29.82 VVTS 260700Z 11007KT 050V190 9999 FEW030 36/15 Q1010 NOSIG
KUL WMKK Kuala Lumpur, MY Kuala Lumpur International Airport 8 36/23 29.79 WMKK 260700Z 08008KT 010V160 9999 SCT018 36/23 Q1009 NOSIG
LGK WMKL Langkawi, MY Langkawi International Airport 10 36/21 29.79 WMKL 260700Z 06010KT 340V120 9999 FEW020 36/21 Q1009
VDSA 8 35/17 29.85 VDSA 260700Z 05008KT 360V120 9999 FEW017 35/17 Q1011
BKK VTBS Bangkok, TH Suvarnabhumi Airport 8 35/21 29.85 VTBS 260700Z 13008KT 070V190 9999 FEW020 35/21 Q1011 NOSIG
LPT VTCL TH Lampang Airport 5 35/22 29.88 VTCL 260700Z 28005KT 200V330 9999 FEW030 35/22 Q1012 NOSIG
NNT VTCN TH Nan Airport 4 35/20 29.85 VTCN 260700Z VRB04KT CAVOK 35/20 Q1011 NOSIG
PHS VTPP TH Phitsanulok Airport 7 3.73 35/24 29.85 VTPP 260700Z 21007KT 6000 FEW040 35/24 Q1011 NOSIG
HKT VTSP Phuket, TH Phuket International Airport 12 35/22 29.79 VTSP 260700Z 09012KT 320V120 9999 FEW020 35/22 Q1009 NOSIG
SNO VTUI TH Sakon Nakhon Airport 6 35/16 29.91 VTUI 260700Z 13006KT 100V160 CAVOK 35/16 Q1013 NOSIG
RGN VYYY Yangon, MM Yangon International Airport 12 4.35 35/20 29.82 VYYY 260700Z 05012KT 7000 NSC 35/20 Q1010 NOSIG
AOR WMKA Alor Satar, MY Sultan Abdul Halim Airport 8 35/20 29.79 WMKA 260700Z 05008KT 340V150 9999 FEW020 35/20 Q1009
PEN WMKP Penang, MY Penang International Airport 6 5.59 35/21 29.79 WMKP 260700Z 09006KT 010V150 9000 FEW020 35/21 Q1009 NOSIG
LEA YPLM Exmouth, AU Learmonth Airport 16 35/20 29.76 YPLM 260700Z AUTO 24016KT 9999 // NCD 35/20 Q1008 RF00.0/000.0
KTR YPTN AU Tindal Airport 7 35/24 29.65 YPTN 260700Z AUTO 16007KT 9999 // SCT087 35/24 Q1004 RF00.0/000.0 DL-SW/DL-W
TMW YSTW Tamworth, AU Tamworth Airport 1 35/13 29.88 YSTW 260700Z AUTO 29001KT 9999 // NCD 35/13 Q1012 RF00.0/000.0
LPQ VLLB Luang Phabang, LA Luang Phabang International Airport 4 34/19 29.88 VLLB 260600Z 04004KT 9999 FEW020 34/19 Q1012 NOSIG
CMB VCBI Colombo, LK Bandaranaike International Colombo Airport 10 34/23 29.82 VCBI 260610Z 05010KT 020V090 9999 FEW018 34/23 Q1010 NOSIG
PNH VDPP Phnom Penh, KH Phnom Penh International Airport 7 34/19 29.82 VDPP 260700Z 04007KT 020V120 9999 SCT017 34/19 Q1010
COK VOCI Kochi, IN Cochin International Airport 3 3.11 34/19 29.82 VOCI 260700Z VRB03KT 5000 HZ FEW015 34/19 Q1010 NOSIG
VOTK 12 3.11 34/22 29.85 VOTK 260700Z 05012KT 5000 HZ SCT018 34/22 Q1011 NOSIG
TRV VOTV Thiruvananthapuram, IN Trivandrum International Airport 8 3.11 34/23 29.79 VOTV 260700Z 28008KT 5000 HZ FEW015 SCT080 34/23 Q1009 NOSIG
CNX VTCC Chiang Mai, TH Chiang Mai International Airport 3 4.97 34/16 29.88 VTCC 260700Z VRB03KT 8000 FEW035 34/16 Q1012 NOSIG
HGN VTCH TH Mae Hong Son Airport 2 3.73 34/11 29.88 VTCH 260700Z VRB02KT 6000 FEW025 34/11 Q1012 NOSIG
THS VTPO TH Sukhothai Airport 5 5.59 34/23 29.85 VTPO 260700Z 20005KT 9000 FEW035 34/23 Q1011 NOSIG
URT VTSB Surat Thani, TH Surat Thani Airport 10 34/22 29.82 VTSB 260700Z 03010KT 9999 SCT020 34/22 Q1010 NOSIG
HDY VTSS Hat Yai, TH Hat Yai International Airport 18 34/22 29.82 VTSS 260700Z 07018KT 9999 FEW020 34/22 Q1010 NOSIG
TST VTST TH Trang Airport 13 27 34/14 29.79 VTST 260700Z 06013G27KT 9999 FEW030 34/14 Q1009 NOSIG
NAK VTUQ TH Nakhon Ratchasima Airport 6 34/17 29.88 VTUQ 260700Z 09006KT 020V160 CAVOK 34/17 Q1012 NOSIG
UBP VTUU Ubon Ratchathani, TH Ubon Ratchathani Airport 3 5.59 34/20 29.88 VTUU 260700Z VRB03KT 9000 NSC 34/20 Q1012 NOSIG
VCA VVCT Can Tho, VN Can Tho International Airport 11 34/20 29.85 VVCT 260700Z 08011KT 9999 SCT017 34/20 Q1011 NOSIG
NMT VYNT Namtu, MM Namtu Airport 8 4.35 34/14 29.88 VYNT 260700Z 02008KT 7000 NSC 34/14 Q1012 NOSIG
TWU WBKW Tawau, MY Tawau Airport 4 34/24 29.76 WBKW 260700Z 04004KT 360V100 9999 SCT017 34/24 Q1008
WIEE 5 34/24 29.73 WIEE 260700Z 23005KT 180V310 9999 FEW020 34/24 Q1007 NOSIG
SZB WMSA Subang, MY Sultan Abdul Aziz Shah International Airport 6 34/22 29.79 WMSA 260700Z VRB06KT 9999 FEW018 34/22 Q1009
QPG WSAP SG Paya Lebar Air Base 11 34/23 29.82 WSAP 260700Z 03011KT 9999 FEW020 FEW022TCU SCT160 34/23 Q1010
YPEA Bullsbrook, AU RAAF Base Pearce 9 34/16 29.76 YPEA 260700Z 20009KT 170V240 CAVOK 34/16 Q1008 RF00.0/000.0
PHE YPPD Port Hedland, AU Port Hedland International Airport 20 34/26 29.70 YPPD 260700Z AUTO 32020KT 9999 // NCD 34/26 Q1006 RF00.0/000.0